LWSK

Skopje Alexander the Great Airport

Skopje, Macedonia
TAF LWSK 250830Z 2509/2609 36015KT 9999 SCT050 TEMPO 2509/2519 01025G35KT
Issued Valid From Valid To
Sep-25 @ 08:30 UTC
(9 hours ago)
Sep-25 @ 09:00 UTC
(8 hours ago)
Sep-26 @ 09:00 UTC
(in 16 hours)
Sep-25 @ 09:00 to Sep-26 @ 09:00
TAF LWSK 250830Z 2509/2609 36015KT 9999 SCT050
Wind Visibility Clouds
360° at 15 knots 10,000+ meters
  • Scattered at 5,000' AGL
Temporary Sep-25 @ 09:00 to Sep-25 @ 19:00
TEMPO 2509/2519 01025G35KT
Wind
10° at 25 knots
 Gusting to 35 knots
TAF LWSK 250830Z 2509/2609 36015KT 9999 SCT050 TEMPO 2509/2519 01025G35KT
Issued Sep-25 @ 08:30 UTC
(9 hours ago)
Valid From Sep-25 @ 09:00 UTC
(8 hours ago)
Valid To Sep-26 @ 09:00 UTC
(in 16 hours)
Sep-25 @ 09:00 - Sep-26 @ 09:00
Wind Visibility
360° at 15 knots 10,000+ meters
Clouds
  • Scattered at 5,000' AGL
Temporary Sep-25 @ 09:00 - Sep-25 @ 19:00
Wind
10° at 25 knots
 Gusting to 35 knots